createdAt,value
2018-06-24T00:02:31.284Z,14.30
2018-06-24T00:05:00.323Z,14.30
2018-06-24T00:07:28.847Z,14.30
2018-06-24T00:09:57.336Z,14.30
2018-06-24T00:14:54.190Z,14.30
2018-06-24T00:17:22.905Z,14.40
2018-06-24T00:24:47.773Z,14.20
2018-06-24T00:29:44.420Z,14.20
2018-06-24T00:32:12.931Z,14.00
2018-06-24T00:34:41.631Z,14.00
2018-06-24T00:37:10.101Z,14.00
2018-06-24T00:39:38.715Z,13.90
2018-06-24T00:42:07.196Z,13.90
2018-06-24T00:44:35.743Z,13.80
2018-06-24T00:49:32.752Z,13.80
2018-06-24T00:52:01.197Z,13.60
2018-06-24T00:54:29.679Z,13.50
2018-06-24T00:56:58.124Z,13.50
2018-06-24T01:02:00.151Z,13.40
2018-06-24T01:04:28.630Z,13.50
2018-06-24T01:06:57.113Z,13.50
2018-06-24T01:09:25.579Z,13.40
2018-06-24T01:11:54.023Z,13.40
2018-06-24T01:14:22.468Z,13.40
2018-06-24T01:16:50.963Z,13.40
2018-06-24T01:19:19.396Z,13.50
2018-06-24T01:24:16.043Z,13.60
2018-06-24T01:26:44.519Z,13.70
2018-06-24T01:29:12.932Z,13.60
2018-06-24T01:31:41.408Z,13.60
2018-06-24T01:34:09.895Z,13.40
2018-06-24T01:36:38.422Z,13.30
2018-06-24T01:39:07.057Z,13.20
2018-06-24T01:41:35.570Z,13.20
2018-06-24T01:44:04.018Z,13.20
2018-06-24T01:46:32.524Z,13.20
2018-06-24T01:49:00.986Z,13.20
2018-06-24T01:51:29.460Z,13.30
2018-06-24T01:53:57.940Z,13.40
2018-06-24T01:56:26.393Z,13.40
2018-06-24T01:58:54.867Z,13.40
2018-06-24T02:01:23.398Z,13.40
2018-06-24T02:03:51.995Z,13.30
2018-06-24T02:06:20.468Z,13.30
2018-06-24T02:11:17.029Z,13.40
2018-06-24T02:13:45.478Z,13.40
2018-06-24T02:16:13.904Z,13.30
2018-06-24T02:18:42.419Z,13.40
2018-06-24T02:21:10.935Z,13.40
2018-06-24T02:23:39.448Z,13.50
2018-06-24T02:26:08.047Z,13.50
2018-06-24T02:28:36.895Z,13.40
2018-06-24T02:31:05.589Z,13.50
2018-06-24T02:33:34.184Z,13.50
2018-06-24T02:36:02.686Z,13.60
2018-06-24T02:38:31.193Z,13.50
2018-06-24T02:40:59.997Z,13.50
2018-06-24T02:45:56.670Z,13.50
2018-06-24T02:50:53.406Z,13.50
2018-06-24T02:53:21.894Z,13.60
2018-06-24T02:55:50.360Z,13.70
2018-06-24T03:00:47.027Z,13.60
2018-06-24T03:03:15.512Z,13.60
2018-06-24T03:05:44.012Z,13.60
2018-06-24T03:08:12.519Z,13.60
2018-06-24T03:10:41.006Z,13.50
2018-06-24T03:15:37.649Z,13.30
2018-06-24T03:18:06.188Z,13.30
2018-06-24T03:20:34.638Z,13.30
2018-06-24T03:23:03.119Z,13.20
2018-06-24T03:25:31.610Z,13.30
2018-06-24T03:28:00.099Z,13.30
2018-06-24T03:30:28.547Z,13.10
2018-06-24T03:32:57.046Z,13.10
2018-06-24T03:35:25.471Z,13.00
2018-06-24T03:37:53.940Z,13.00
2018-06-24T03:42:50.559Z,13.00
2018-06-24T03:45:19.005Z,13.10
2018-06-24T03:47:47.473Z,13.10
2018-06-24T03:50:15.999Z,13.30
2018-06-24T03:52:44.421Z,13.30
2018-06-24T03:55:12.876Z,13.40
2018-06-24T03:57:41.289Z,13.50
2018-06-24T04:00:09.808Z,13.50
2018-06-24T04:02:38.341Z,13.60
2018-06-24T04:05:06.907Z,13.50
2018-06-24T04:07:35.396Z,13.50
2018-06-24T04:10:03.971Z,13.50
2018-06-24T04:12:32.432Z,13.60
2018-06-24T04:15:00.967Z,13.80
2018-06-24T04:17:29.479Z,13.80
2018-06-24T04:19:58.073Z,13.90
2018-06-24T04:22:26.550Z,13.90
2018-06-24T04:24:55.077Z,14.10
2018-06-24T04:27:23.563Z,14.20
2018-06-24T04:29:52.091Z,14.20
2018-06-24T04:32:20.561Z,14.10
2018-06-24T04:34:49.056Z,14.50
2018-06-24T04:37:17.547Z,14.50
2018-06-24T04:39:46.067Z,14.70
2018-06-24T04:42:14.568Z,14.70
2018-06-24T04:44:43.079Z,15.00
2018-06-24T04:47:11.566Z,15.20
2018-06-24T04:52:08.202Z,15.00
2018-06-24T04:54:36.691Z,15.00
2018-06-24T04:57:05.280Z,15.00
2018-06-24T04:59:34.063Z,15.10
2018-06-24T05:02:02.551Z,15.30
2018-06-24T05:04:31.060Z,15.30
2018-06-24T05:06:59.529Z,15.00
2018-06-24T05:11:56.188Z,14.70
2018-06-24T05:14:24.644Z,14.50
2018-06-24T05:16:53.111Z,14.30
2018-06-24T05:19:21.616Z,14.30
2018-06-24T05:21:50.098Z,14.30
2018-06-24T05:24:18.548Z,14.40
2018-06-24T05:26:49.456Z,14.30
2018-06-24T05:29:17.884Z,14.30
2018-06-24T05:31:46.364Z,14.40
2018-06-24T05:34:14.848Z,14.50
2018-06-24T05:36:43.311Z,14.70
2018-06-24T05:39:12.718Z,14.80
2018-06-24T05:44:09.717Z,14.90
2018-06-24T05:46:38.197Z,15.00
2018-06-24T05:51:34.852Z,15.20
2018-06-24T05:54:03.345Z,15.70
2018-06-24T05:56:31.776Z,16.10
2018-06-24T05:59:00.210Z,16.30
2018-06-24T06:01:28.672Z,16.30
2018-06-24T06:03:57.123Z,16.40
2018-06-24T06:06:25.607Z,16.30
2018-06-24T06:08:54.041Z,15.80
2018-06-24T06:13:51.004Z,15.70
2018-06-24T06:16:19.141Z,15.60
2018-06-24T06:18:47.608Z,15.80
2018-06-24T06:21:16.064Z,15.80
2018-06-24T06:23:44.499Z,16.00
2018-06-24T06:26:13.038Z,16.50
2018-06-24T06:28:41.423Z,16.80
2018-06-24T06:31:09.873Z,16.50
2018-06-24T06:33:38.333Z,16.70
2018-06-24T06:36:06.783Z,16.40
2018-06-24T06:38:35.239Z,16.60
2018-06-24T06:41:03.714Z,16.50
2018-06-24T06:43:32.207Z,16.70
2018-06-24T06:46:00.659Z,16.30
2018-06-24T06:48:29.116Z,16.40
2018-06-24T06:50:57.588Z,16.50
2018-06-24T06:53:26.139Z,16.60
2018-06-24T06:55:54.592Z,16.60
2018-06-24T06:58:23.049Z,16.80
2018-06-24T07:00:51.495Z,16.70
2018-06-24T07:05:48.156Z,16.90
2018-06-24T07:08:16.539Z,16.80
2018-06-24T07:10:44.989Z,16.70
2018-06-24T07:13:13.459Z,16.80
2018-06-24T07:18:10.159Z,17.10
2018-06-24T07:20:38.644Z,17.50
2018-06-24T07:23:07.180Z,17.70
2018-06-24T07:25:35.643Z,17.70
2018-06-24T07:28:04.121Z,17.60
2018-06-24T07:30:32.636Z,17.70
2018-06-24T07:33:01.176Z,17.70
2018-06-24T07:35:29.633Z,17.60
2018-06-24T07:37:58.119Z,17.50
2018-06-24T07:40:26.708Z,17.60
2018-06-24T07:42:55.233Z,17.50
2018-06-24T07:45:23.739Z,17.40
2018-06-24T07:47:52.242Z,17.20
2018-06-24T07:50:20.756Z,17.50
2018-06-24T07:52:49.226Z,17.90
2018-06-24T07:55:17.710Z,17.90
2018-06-24T07:57:46.575Z,17.70
2018-06-24T08:02:43.202Z,18.20
2018-06-24T08:05:11.764Z,18.30
2018-06-24T08:07:40.234Z,18.30
2018-06-24T08:12:36.907Z,18.30
2018-06-24T08:17:33.601Z,18.40
2018-06-24T08:20:02.115Z,18.90
2018-06-24T08:22:30.631Z,18.60
2018-06-24T08:24:59.125Z,18.50
2018-06-24T08:27:27.647Z,17.90
2018-06-24T08:29:56.140Z,18.20
2018-06-24T08:32:24.631Z,18.20
2018-06-24T08:34:53.144Z,18.40
2018-06-24T08:37:21.660Z,18.60
2018-06-24T08:42:18.325Z,18.20
2018-06-24T08:44:46.802Z,18.60
2018-06-24T08:47:15.320Z,18.70
2018-06-24T08:54:40.120Z,19.60
2018-06-24T08:57:08.635Z,19.70
2018-06-24T08:59:37.127Z,19.80
2018-06-24T09:02:05.739Z,19.80
2018-06-24T09:04:34.274Z,19.20
2018-06-24T09:07:02.776Z,19.30
2018-06-24T09:09:31.244Z,19.80
2018-06-24T09:11:59.763Z,19.80
2018-06-24T09:14:28.282Z,19.80
2018-06-24T09:16:56.775Z,19.80
2018-06-24T09:19:25.282Z,19.60
2018-06-24T09:21:53.803Z,19.60
2018-06-24T09:24:22.317Z,19.90
2018-06-24T09:26:50.843Z,19.80
2018-06-24T09:29:19.383Z,19.60
2018-06-24T09:31:47.903Z,20.20
2018-06-24T09:36:44.582Z,20.40
2018-06-24T09:41:41.653Z,19.90
2018-06-24T09:44:10.166Z,19.80
2018-06-24T09:46:38.678Z,19.40
2018-06-24T09:49:07.491Z,19.50
2018-06-24T09:51:36.716Z,19.00
2018-06-24T09:54:05.597Z,19.40
2018-06-24T09:56:34.107Z,19.40
2018-06-24T09:59:02.661Z,19.60
2018-06-24T10:01:31.158Z,19.80
2018-06-24T10:03:59.638Z,19.40
2018-06-24T10:06:28.160Z,19.40
2018-06-24T10:11:24.817Z,20.10
2018-06-24T10:13:53.345Z,20.10
2018-06-24T10:16:21.827Z,19.90
2018-06-24T10:21:18.451Z,20.30
2018-06-24T10:23:46.919Z,20.10
2018-06-24T10:26:15.355Z,20.10
2018-06-24T10:28:43.822Z,20.30
2018-06-24T10:31:12.275Z,20.30
2018-06-24T10:33:40.735Z,20.40
2018-06-24T10:36:09.203Z,20.40
2018-06-24T10:38:37.658Z,20.50
2018-06-24T10:43:34.414Z,21.00
2018-06-24T10:46:02.877Z,21.60
2018-06-24T10:48:31.379Z,21.60
2018-06-24T10:50:59.836Z,21.30
2018-06-24T10:53:28.419Z,21.30
2018-06-24T10:58:25.131Z,21.00
2018-06-24T11:00:53.916Z,20.80
2018-06-24T11:05:50.578Z,20.60
2018-06-24T11:08:19.176Z,20.50
2018-06-24T11:10:47.713Z,20.60
2018-06-24T11:13:16.166Z,20.60
2018-06-24T11:23:09.435Z,20.40
2018-06-24T11:28:06.844Z,20.00
2018-06-24T11:30:35.464Z,20.00
2018-06-24T11:33:04.040Z,20.20
2018-06-24T11:35:32.553Z,20.10
2018-06-24T11:38:01.069Z,20.10
2018-06-24T11:40:29.559Z,20.30
2018-06-24T11:42:58.112Z,20.30
2018-06-24T11:45:26.602Z,20.10
2018-06-24T11:47:55.098Z,19.80
2018-06-24T11:50:23.600Z,19.90
2018-06-24T11:52:52.078Z,19.90
2018-06-24T11:57:48.739Z,20.30
2018-06-24T12:00:17.283Z,20.30
2018-06-24T12:02:45.849Z,20.40
2018-06-24T12:05:14.345Z,20.60
2018-06-24T12:07:42.885Z,20.60
2018-06-24T12:10:11.451Z,20.50
2018-06-24T12:12:39.959Z,20.30
2018-06-24T12:15:08.488Z,20.70
2018-06-24T12:17:36.965Z,20.90
2018-06-24T12:20:05.435Z,20.60
2018-06-24T12:22:33.973Z,20.60
2018-06-24T12:25:02.453Z,20.80
2018-06-24T12:27:30.912Z,20.70
2018-06-24T12:29:59.379Z,20.60
2018-06-24T12:34:56.027Z,20.30
2018-06-24T12:39:52.702Z,20.90
2018-06-24T12:42:21.114Z,20.80
2018-06-24T12:44:49.566Z,20.60
2018-06-24T12:47:18.018Z,20.40
2018-06-24T12:49:46.455Z,20.60
2018-06-24T12:52:15.006Z,20.40
2018-06-24T12:54:43.463Z,20.60
2018-06-24T12:57:11.987Z,20.60
2018-06-24T12:59:40.584Z,20.50
2018-06-24T13:02:08.854Z,20.70
2018-06-24T13:04:37.403Z,20.80
2018-06-24T13:07:06.072Z,20.60
2018-06-24T13:09:34.495Z,21.00
2018-06-24T13:12:02.971Z,20.90
2018-06-24T13:14:31.474Z,20.60
2018-06-24T13:19:28.096Z,20.70
2018-06-24T13:21:56.675Z,20.70
2018-06-24T13:24:25.312Z,21.00
2018-06-24T13:26:53.772Z,21.10
2018-06-24T13:29:22.298Z,21.10
2018-06-24T13:31:50.747Z,21.20
2018-06-24T13:34:19.204Z,21.40
2018-06-24T13:36:47.691Z,21.00
2018-06-24T13:39:16.100Z,21.00
2018-06-24T13:41:44.524Z,21.40
2018-06-24T13:44:13.032Z,21.60
2018-06-24T13:46:41.503Z,21.90
2018-06-24T13:49:09.975Z,21.30
2018-06-24T13:54:06.575Z,21.70
2018-06-24T13:56:35.087Z,21.50
2018-06-24T13:59:03.523Z,21.30
2018-06-24T14:01:31.952Z,21.20
2018-06-24T14:04:00.425Z,21.50
2018-06-24T14:06:28.821Z,21.60
2018-06-24T14:08:57.241Z,21.60
2018-06-24T14:11:25.708Z,21.30
2018-06-24T14:16:22.283Z,21.20
2018-06-24T14:21:18.859Z,21.30
2018-06-24T14:23:47.412Z,21.10
2018-06-24T14:26:15.910Z,20.90
2018-06-24T14:28:44.353Z,21.00
2018-06-24T14:33:41.018Z,21.10
2018-06-24T14:36:09.437Z,20.90
2018-06-24T14:38:37.878Z,20.70
2018-06-24T14:41:06.337Z,20.60
2018-06-24T14:43:34.850Z,20.50
2018-06-24T14:46:03.351Z,20.50
2018-06-24T14:48:31.830Z,20.50
2018-06-24T14:51:00.663Z,20.60
2018-06-24T14:53:29.338Z,20.60
2018-06-24T14:55:57.819Z,20.60
2018-06-24T14:58:26.398Z,20.80
2018-06-24T15:00:54.891Z,20.90
2018-06-24T15:03:23.368Z,20.80
2018-06-24T15:08:20.080Z,21.30
2018-06-24T15:10:48.539Z,20.90
2018-06-24T15:15:45.253Z,21.20
2018-06-24T15:18:13.694Z,21.20
2018-06-24T15:20:42.199Z,21.20
2018-06-24T15:23:10.634Z,21.30
2018-06-24T15:25:39.099Z,21.30
2018-06-24T15:28:07.528Z,21.30
2018-06-24T15:30:36.000Z,21.60
2018-06-24T15:35:32.617Z,21.20
2018-06-24T15:38:01.077Z,21.10
2018-06-24T15:40:29.594Z,21.00
2018-06-24T15:42:58.012Z,21.20
2018-06-24T15:45:26.874Z,21.00
2018-06-24T15:47:55.297Z,20.90
2018-06-24T15:50:23.728Z,20.90
2018-06-24T15:52:52.148Z,21.00
2018-06-24T15:55:20.563Z,21.00
2018-06-24T15:57:48.990Z,21.10
2018-06-24T16:00:17.457Z,21.20
2018-06-24T16:02:45.861Z,21.30
2018-06-24T16:05:14.286Z,21.30
2018-06-24T16:07:42.738Z,21.20
2018-06-24T16:10:11.176Z,21.10
2018-06-24T16:12:39.617Z,20.90
2018-06-24T16:15:08.044Z,21.00
2018-06-24T16:17:36.473Z,21.00
2018-06-24T16:22:33.034Z,21.30
2018-06-24T16:25:01.489Z,21.50
2018-06-24T16:27:29.923Z,21.70
2018-06-24T16:32:26.601Z,21.60
2018-06-24T16:34:55.007Z,21.60
2018-06-24T16:37:23.451Z,21.50
2018-06-24T16:39:51.884Z,21.60
2018-06-24T16:47:16.614Z,21.20
2018-06-24T16:49:45.067Z,20.90
2018-06-24T16:52:13.616Z,20.90
2018-06-24T16:54:42.033Z,20.80
2018-06-24T16:59:38.653Z,20.70
2018-06-24T17:02:07.142Z,20.60
2018-06-24T17:04:35.548Z,20.50
2018-06-24T17:07:04.038Z,20.40
2018-06-24T17:09:32.546Z,20.40
2018-06-24T17:12:00.987Z,20.30
2018-06-24T17:16:57.610Z,20.40
2018-06-24T17:19:26.044Z,20.40
2018-06-24T17:21:54.499Z,20.30
2018-06-24T17:24:22.920Z,20.40
2018-06-24T17:26:51.433Z,20.50
2018-06-24T17:31:48.062Z,20.50
2018-06-24T17:34:16.500Z,20.50
2018-06-24T17:36:44.994Z,20.50
2018-06-24T17:39:13.557Z,20.60
2018-06-24T17:41:42.966Z,20.60
2018-06-24T17:44:11.389Z,20.60
2018-06-24T17:46:39.792Z,20.40
2018-06-24T17:49:08.238Z,20.40
2018-06-24T17:51:36.654Z,20.30
2018-06-24T17:54:05.486Z,20.30
2018-06-24T17:56:33.931Z,20.20
2018-06-24T17:59:02.374Z,20.10
2018-06-24T18:03:58.955Z,20.00
2018-06-24T18:08:55.529Z,19.90
2018-06-24T18:13:52.137Z,19.60
2018-06-24T18:16:20.545Z,19.50
2018-06-24T18:18:48.992Z,19.50
2018-06-24T18:21:17.401Z,19.40
2018-06-24T18:26:14.045Z,19.50
2018-06-24T18:28:42.513Z,19.50
2018-06-24T18:31:10.920Z,19.40
2018-06-24T18:33:39.428Z,19.40
2018-06-24T18:36:07.856Z,19.40
2018-06-24T18:38:36.833Z,19.40
2018-06-24T18:41:05.253Z,19.30
2018-06-24T18:46:01.775Z,19.30
2018-06-24T18:48:30.246Z,19.30
2018-06-24T18:50:58.693Z,19.10
2018-06-24T18:53:27.176Z,19.10
2018-06-24T18:55:55.634Z,19.00
2018-06-24T18:58:24.317Z,19.10
2018-06-24T19:00:52.741Z,19.00
2018-06-24T19:03:21.158Z,19.10
2018-06-24T19:05:49.592Z,19.00
2018-06-24T19:08:17.991Z,19.00
2018-06-24T19:10:46.437Z,19.00
2018-06-24T19:15:43.065Z,18.90
2018-06-24T19:18:11.498Z,18.90
2018-06-24T19:20:40.050Z,18.90
2018-06-24T19:23:08.469Z,18.90
2018-06-24T19:25:36.905Z,19.00
2018-06-24T19:30:33.646Z,18.90
2018-06-24T19:33:02.077Z,18.80
2018-06-24T19:35:30.499Z,18.80
2018-06-24T19:37:58.934Z,18.80
2018-06-24T19:40:27.405Z,18.80
2018-06-24T19:42:55.836Z,18.70
2018-06-24T19:45:24.254Z,18.70
2018-06-24T19:47:52.652Z,18.70
2018-06-24T19:52:49.275Z,18.70
2018-06-24T19:55:17.689Z,18.70
2018-06-24T19:57:46.229Z,18.70
2018-06-24T20:00:14.774Z,18.70
2018-06-24T20:02:43.467Z,18.70
2018-06-24T20:05:11.924Z,18.60
2018-06-24T20:07:40.363Z,18.60
2018-06-24T20:10:08.801Z,18.60
2018-06-24T20:12:37.253Z,18.60
2018-06-24T20:15:05.782Z,18.60
2018-06-24T20:20:02.414Z,18.60
2018-06-24T20:22:30.808Z,18.50
2018-06-24T20:24:59.214Z,18.50
2018-06-24T20:27:27.644Z,18.50
2018-06-24T20:32:24.273Z,18.50
2018-06-24T20:34:52.675Z,18.50
2018-06-24T20:37:21.117Z,18.50
2018-06-24T20:39:49.504Z,18.50
2018-06-24T20:42:18.038Z,18.40
2018-06-24T20:44:46.472Z,18.40
2018-06-24T20:49:43.012Z,18.30
2018-06-24T20:52:11.421Z,18.30
2018-06-24T20:54:39.811Z,18.20
2018-06-24T20:57:08.232Z,18.10
2018-06-24T21:04:33.859Z,18.20
2018-06-24T21:07:02.277Z,18.10
2018-06-24T21:09:30.673Z,18.20
2018-06-24T21:11:59.115Z,18.10
2018-06-24T21:14:27.622Z,18.00
2018-06-24T21:16:56.069Z,18.00
2018-06-24T21:19:24.475Z,18.00
2018-06-24T21:29:21.705Z,17.80
2018-06-24T21:31:50.247Z,17.80
2018-06-24T21:34:18.743Z,17.70
2018-06-24T21:36:47.150Z,17.70
2018-06-24T21:39:15.564Z,17.70
2018-06-24T21:41:44.005Z,17.70
2018-06-24T21:44:12.409Z,17.60
2018-06-24T21:46:40.902Z,17.50
2018-06-24T21:49:09.298Z,17.50
2018-06-24T21:51:37.813Z,17.50
2018-06-24T21:54:06.257Z,17.50
2018-06-24T21:59:03.334Z,17.40
2018-06-24T22:01:31.834Z,17.40
2018-06-24T22:04:00.272Z,17.40
2018-06-24T22:06:28.698Z,17.30
2018-06-24T22:08:57.294Z,17.30
2018-06-24T22:11:25.696Z,17.30
2018-06-24T22:13:54.120Z,17.20
2018-06-24T22:16:22.517Z,17.20
2018-06-24T22:21:19.207Z,17.20
2018-06-24T22:23:47.770Z,17.20
2018-06-24T22:28:44.324Z,17.10
2018-06-24T22:31:12.743Z,17.10
2018-06-24T22:33:41.150Z,17.10
2018-06-24T22:38:37.645Z,17.10
2018-06-24T22:41:06.187Z,17.00
2018-06-24T22:43:34.613Z,17.00
2018-06-24T22:48:31.446Z,16.90
2018-06-24T22:50:59.845Z,17.00
2018-06-24T22:53:28.383Z,16.90
2018-06-24T22:58:24.961Z,16.80
2018-06-24T23:03:21.578Z,16.80
2018-06-24T23:05:50.708Z,16.80
2018-06-24T23:08:19.129Z,16.80
2018-06-24T23:10:47.515Z,16.70
2018-06-24T23:13:15.916Z,16.70
2018-06-24T23:18:12.520Z,16.70
2018-06-24T23:20:40.966Z,16.70
2018-06-24T23:23:09.469Z,16.70
2018-06-24T23:25:37.923Z,16.60
2018-06-24T23:28:06.390Z,16.60
2018-06-24T23:33:03.018Z,16.70
2018-06-24T23:35:31.436Z,16.60
2018-06-24T23:37:59.919Z,16.60
2018-06-24T23:40:28.345Z,16.50
2018-06-24T23:42:56.758Z,16.50
2018-06-24T23:45:25.418Z,16.50
2018-06-24T23:47:54.473Z,16.50
2018-06-24T23:50:22.895Z,16.40
2018-06-24T23:52:51.289Z,16.50
2018-06-24T23:55:19.720Z,16.50
2018-06-24T23:57:48.170Z,16.50
